createdAt,value
2019-03-22T00:00:16.326Z,81.63
2019-03-22T00:02:44.788Z,93.20
2019-03-22T00:05:13.214Z,93.62
2019-03-22T00:07:41.643Z,96.67
2019-03-22T00:10:10.147Z,94.45
2019-03-22T00:12:41.572Z,89.58
2019-03-22T00:15:10.773Z,86.12
2019-03-22T00:17:39.225Z,87.53
2019-03-22T00:20:08.808Z,94.20
2019-03-22T00:22:37.281Z,100.25
2019-03-22T00:25:06.374Z,90.80
2019-03-22T00:27:34.843Z,92.10
2019-03-22T00:30:04.873Z,76.35
2019-03-22T00:32:33.341Z,79.97
2019-03-22T00:35:01.803Z,84.20
2019-03-22T00:37:30.278Z,84.77
2019-03-22T00:39:58.748Z,85.12
2019-03-22T00:42:27.200Z,82.95
2019-03-22T00:44:55.644Z,88.12
2019-03-22T00:47:24.069Z,82.02
2019-03-22T00:49:52.582Z,82.30
2019-03-22T00:52:22.269Z,85.65
2019-03-22T00:54:50.722Z,85.25
2019-03-22T00:57:27.945Z,83.50
2019-03-22T00:59:49.306Z,83.20
2019-03-22T01:02:17.820Z,87.42
2019-03-22T01:04:46.263Z,80.83
2019-03-22T01:07:14.750Z,82.08
2019-03-22T01:09:44.377Z,84.67
2019-03-22T01:12:12.898Z,86.32
2019-03-22T01:14:41.349Z,90.30
2019-03-22T01:17:10.426Z,91.57
2019-03-22T01:19:38.869Z,82.17
2019-03-22T01:22:07.324Z,87.62
2019-03-22T01:24:35.762Z,93.37
2019-03-22T01:27:04.214Z,85.72
2019-03-22T01:29:32.663Z,91.12
2019-03-22T01:32:01.098Z,88.78
2019-03-22T01:34:31.488Z,92.45
2019-03-22T01:36:59.922Z,93.40
2019-03-22T01:39:28.376Z,92.75
2019-03-22T01:41:56.845Z,95.45
2019-03-22T01:44:25.290Z,87.78
2019-03-22T01:46:53.740Z,98.65
2019-03-22T01:49:24.241Z,92.70
2019-03-22T01:51:52.675Z,89.58
2019-03-22T01:54:21.113Z,92.53
2019-03-22T01:56:49.562Z,103.25
2019-03-22T01:59:17.990Z,102.10
2019-03-22T02:01:46.448Z,99.05
2019-03-22T02:04:14.877Z,94.97
2019-03-22T02:06:43.322Z,98.65
2019-03-22T02:09:11.776Z,95.25
2019-03-22T02:11:40.202Z,98.40
2019-03-22T02:14:08.715Z,96.37
2019-03-22T02:16:37.290Z,96.80
2019-03-22T02:19:05.730Z,104.72
2019-03-22T02:21:35.027Z,104.92
2019-03-22T02:24:03.469Z,104.07
2019-03-22T02:26:31.903Z,106.97
2019-03-22T02:29:00.361Z,101.72
2019-03-22T02:31:28.951Z,105.40
2019-03-22T02:33:57.448Z,107.92
2019-03-22T02:36:25.910Z,111.12
2019-03-22T02:38:54.357Z,117.60
2019-03-22T02:41:22.871Z,122.85
2019-03-22T02:43:54.437Z,113.50
2019-03-22T02:46:21.499Z,110.95
2019-03-22T02:49:00.047Z,123.78
2019-03-22T02:51:28.509Z,116.57
2019-03-22T02:53:56.977Z,118.25
2019-03-22T02:56:25.407Z,112.57
2019-03-22T02:58:53.840Z,104.83
2019-03-22T03:01:22.339Z,114.52
2019-03-22T03:03:50.792Z,111.28
2019-03-22T03:06:20.579Z,122.28
2019-03-22T03:08:49.026Z,115.45
2019-03-22T03:11:17.473Z,110.75
2019-03-22T03:13:45.914Z,109.90
2019-03-22T03:16:14.389Z,107.20
2019-03-22T03:18:42.920Z,113.05
2019-03-22T03:21:11.365Z,110.17
2019-03-22T03:23:39.821Z,109.95
2019-03-22T03:26:08.268Z,106.00
2019-03-22T03:28:37.704Z,109.63
2019-03-22T03:31:06.382Z,114.97
2019-03-22T03:33:34.895Z,115.22
2019-03-22T03:36:03.342Z,101.85
2019-03-22T03:38:31.887Z,98.05
2019-03-22T03:41:00.698Z,110.50
2019-03-22T03:43:29.278Z,107.90
2019-03-22T03:45:58.774Z,108.30
2019-03-22T03:48:27.248Z,114.35
2019-03-22T03:50:55.672Z,96.40
2019-03-22T03:53:24.116Z,102.10
2019-03-22T03:55:52.563Z,102.92
2019-03-22T03:58:20.988Z,99.87
2019-03-22T04:00:49.483Z,109.80
2019-03-22T04:03:17.989Z,98.60
2019-03-22T04:05:47.413Z,105.45
2019-03-22T04:08:15.860Z,106.60
2019-03-22T04:10:44.359Z,115.30
2019-03-22T04:13:12.829Z,102.78
2019-03-22T04:15:43.190Z,113.28
2019-03-22T04:18:11.639Z,112.90
2019-03-22T04:20:40.102Z,100.58
2019-03-22T04:23:08.555Z,95.30
2019-03-22T04:25:38.192Z,106.10
2019-03-22T04:28:06.647Z,105.72
2019-03-22T04:30:35.121Z,108.00
2019-03-22T04:33:06.394Z,97.62
2019-03-22T04:35:33.873Z,103.65
2019-03-22T04:38:02.389Z,110.00
2019-03-22T04:40:30.962Z,96.65
2019-03-22T04:42:59.417Z,95.92
2019-03-22T04:45:30.913Z,105.22
2019-03-22T04:48:08.122Z,104.25
2019-03-22T04:50:39.639Z,104.78
2019-03-22T04:53:11.008Z,109.52
2019-03-22T04:55:41.462Z,106.80
2019-03-22T04:58:11.674Z,104.07
2019-03-22T05:00:40.950Z,103.32
2019-03-22T05:03:10.649Z,98.47
2019-03-22T05:05:39.414Z,102.38
2019-03-22T05:08:08.554Z,102.42
2019-03-22T05:10:38.323Z,108.83
2019-03-22T05:13:10.011Z,101.80
2019-03-22T05:15:39.038Z,98.15
2019-03-22T05:18:07.924Z,103.00
2019-03-22T05:20:37.817Z,107.70
2019-03-22T05:23:08.547Z,101.50
2019-03-22T05:25:37.730Z,100.07
2019-03-22T05:28:08.127Z,98.87
2019-03-22T05:30:51.455Z,115.77
2019-03-22T05:33:19.913Z,107.25
2019-03-22T05:35:48.479Z,109.48
2019-03-22T05:38:16.963Z,105.17
2019-03-22T05:40:45.394Z,122.70
2019-03-22T05:43:13.868Z,111.20
2019-03-22T05:45:42.386Z,118.17
2019-03-22T05:48:10.829Z,100.70
2019-03-22T05:50:39.284Z,108.05
2019-03-22T05:53:07.702Z,93.87
2019-03-22T05:55:36.145Z,106.52
2019-03-22T05:58:04.652Z,104.07
2019-03-22T06:00:33.098Z,105.60
2019-03-22T06:03:01.522Z,107.43
2019-03-22T06:05:29.979Z,121.22
2019-03-22T06:07:58.410Z,101.07
2019-03-22T06:10:26.873Z,116.85
2019-03-22T06:12:55.328Z,103.85
2019-03-22T06:15:23.783Z,107.15
2019-03-22T06:17:52.375Z,109.25
2019-03-22T06:20:20.804Z,106.58
2019-03-22T06:22:49.270Z,122.80
2019-03-22T06:25:17.731Z,111.37
2019-03-22T06:27:46.260Z,120.57
2019-03-22T06:30:14.787Z,115.70
2019-03-22T06:32:43.252Z,123.65
2019-03-22T06:35:11.698Z,118.13
2019-03-22T06:37:40.165Z,126.67
2019-03-22T06:40:08.753Z,118.45
2019-03-22T06:42:37.215Z,121.67
2019-03-22T06:45:07.419Z,120.65
2019-03-22T06:47:35.858Z,115.22
2019-03-22T06:50:08.503Z,129.47
2019-03-22T06:52:37.049Z,124.53
2019-03-22T06:55:07.084Z,130.07
2019-03-22T06:57:35.529Z,117.57
2019-03-22T07:00:09.487Z,119.53
2019-03-22T07:02:38.082Z,131.63
2019-03-22T07:05:06.966Z,125.55
2019-03-22T07:07:35.393Z,117.75
2019-03-22T07:10:05.801Z,127.20
2019-03-22T07:12:34.245Z,129.70
2019-03-22T07:15:02.710Z,122.07
2019-03-22T07:17:31.164Z,127.35
2019-03-22T07:19:59.607Z,123.15
2019-03-22T07:22:28.041Z,115.17
2019-03-22T07:24:56.482Z,120.85
2019-03-22T07:27:24.919Z,124.38
2019-03-22T07:29:53.381Z,121.42
2019-03-22T07:32:21.826Z,127.50
2019-03-22T07:34:50.272Z,125.12
2019-03-22T07:37:18.771Z,125.85
2019-03-22T07:39:47.216Z,132.97
2019-03-22T07:42:17.584Z,130.32
2019-03-22T07:44:45.911Z,130.47
2019-03-22T07:47:14.354Z,120.75
2019-03-22T07:49:42.793Z,124.87
2019-03-22T07:52:11.243Z,140.77
2019-03-22T07:54:39.743Z,135.37
2019-03-22T07:57:08.183Z,126.45
2019-03-22T07:59:36.639Z,130.00
2019-03-22T08:02:05.236Z,130.37
2019-03-22T08:04:33.684Z,131.65
2019-03-22T08:07:02.130Z,120.13
2019-03-22T08:09:30.563Z,116.85
2019-03-22T08:11:59.598Z,129.03
2019-03-22T08:14:28.069Z,135.93
2019-03-22T08:16:56.560Z,136.03
2019-03-22T08:19:25.012Z,120.02
2019-03-22T08:21:53.435Z,123.75
2019-03-22T08:24:21.877Z,115.15
2019-03-22T08:26:50.341Z,125.87
2019-03-22T08:29:18.854Z,119.97
2019-03-22T08:31:47.385Z,114.35
2019-03-22T08:34:15.900Z,114.77
2019-03-22T08:36:44.352Z,118.33
2019-03-22T08:39:12.835Z,111.92
2019-03-22T08:41:41.348Z,119.20
2019-03-22T08:44:09.788Z,121.45
2019-03-22T08:46:38.254Z,128.55
2019-03-22T08:49:09.340Z,119.50
2019-03-22T08:51:36.959Z,123.28
2019-03-22T08:54:05.554Z,115.08
2019-03-22T08:56:36.025Z,111.83
2019-03-22T08:59:04.581Z,118.10
2019-03-22T09:01:33.065Z,122.80
2019-03-22T09:04:01.551Z,110.37
2019-03-22T09:06:30.068Z,123.67
2019-03-22T09:08:58.630Z,133.10
2019-03-22T09:11:27.133Z,112.83
2019-03-22T09:13:55.608Z,126.87
2019-03-22T09:16:24.150Z,119.90
2019-03-22T09:18:52.634Z,114.03
2019-03-22T09:21:21.092Z,108.40
2019-03-22T09:23:49.556Z,119.67
2019-03-22T09:26:19.971Z,113.37
2019-03-22T09:28:48.301Z,117.03
2019-03-22T09:31:16.819Z,116.62
2019-03-22T09:33:45.301Z,113.30
2019-03-22T09:36:13.761Z,129.78
2019-03-22T09:38:42.246Z,117.28
2019-03-22T09:41:10.737Z,118.05
2019-03-22T09:43:39.178Z,118.72
2019-03-22T09:46:07.640Z,129.00
2019-03-22T09:48:36.146Z,118.05
2019-03-22T09:51:04.706Z,125.82
2019-03-22T09:53:33.221Z,121.37
2019-03-22T09:56:01.770Z,110.15
2019-03-22T09:58:30.355Z,119.67
2019-03-22T10:00:58.917Z,119.22
2019-03-22T10:03:27.413Z,111.65
2019-03-22T10:05:55.926Z,115.25
2019-03-22T10:08:24.384Z,105.67
2019-03-22T10:10:52.876Z,121.13
2019-03-22T10:13:21.359Z,110.25
2019-03-22T10:15:49.971Z,121.42
2019-03-22T10:18:18.435Z,117.13
2019-03-22T10:20:46.894Z,114.37
2019-03-22T10:23:15.431Z,109.67
2019-03-22T10:25:43.911Z,110.00
2019-03-22T10:28:12.440Z,108.52
2019-03-22T10:30:40.942Z,105.52
2019-03-22T10:33:21.823Z,109.12
2019-03-22T10:35:39.588Z,105.87
2019-03-22T10:38:15.949Z,117.60
2019-03-22T10:40:38.344Z,118.02
2019-03-22T10:43:06.804Z,120.08
2019-03-22T10:45:35.361Z,116.12
2019-03-22T10:48:03.983Z,112.60
2019-03-22T10:50:32.444Z,114.57
2019-03-22T10:53:00.942Z,111.85
2019-03-22T10:55:30.668Z,112.47
2019-03-22T10:57:59.525Z,109.52
2019-03-22T11:00:28.060Z,110.30
2019-03-22T11:02:56.495Z,113.42
2019-03-22T11:05:25.064Z,103.55
2019-03-22T11:07:53.527Z,109.35
2019-03-22T11:10:21.971Z,108.27
2019-03-22T11:12:50.501Z,110.60
2019-03-22T11:15:18.939Z,114.67
2019-03-22T11:17:47.387Z,113.15
2019-03-22T11:20:17.154Z,111.25
2019-03-22T11:22:45.597Z,104.53
2019-03-22T11:25:14.174Z,108.63
2019-03-22T11:27:42.619Z,110.48
2019-03-22T11:30:16.805Z,112.28
2019-03-22T11:32:45.549Z,101.53
2019-03-22T11:35:14.437Z,105.37
2019-03-22T11:37:42.877Z,113.85
2019-03-22T11:40:16.012Z,107.67
2019-03-22T11:42:44.614Z,101.02
2019-03-22T11:45:16.393Z,107.92
2019-03-22T11:47:44.826Z,105.50
2019-03-22T11:50:13.632Z,96.50
2019-03-22T11:52:42.082Z,105.97
2019-03-22T11:55:12.599Z,108.05
2019-03-22T11:57:41.117Z,107.15
2019-03-22T12:00:15.765Z,96.82
2019-03-22T12:02:44.187Z,98.03
2019-03-22T12:05:14.083Z,100.60
2019-03-22T12:07:42.659Z,96.90
2019-03-22T12:10:13.675Z,94.83
2019-03-22T12:12:42.190Z,99.70
2019-03-22T12:15:13.178Z,95.40
2019-03-22T12:17:41.746Z,97.75
2019-03-22T12:20:13.412Z,95.15
2019-03-22T12:22:41.858Z,93.27
2019-03-22T12:25:13.044Z,89.67
2019-03-22T12:27:41.492Z,92.33
2019-03-22T12:30:12.703Z,91.87
2019-03-22T12:32:41.190Z,101.53
2019-03-22T12:35:10.638Z,92.65
2019-03-22T12:37:39.490Z,94.13
2019-03-22T12:40:14.199Z,90.62
2019-03-22T12:42:42.626Z,88.62
2019-03-22T12:45:14.173Z,91.92
2019-03-22T12:47:42.697Z,92.82
2019-03-22T12:50:13.780Z,84.25
2019-03-22T12:52:42.241Z,86.78
2019-03-22T12:55:11.810Z,85.30
2019-03-22T12:57:40.271Z,88.55
2019-03-22T13:00:11.810Z,84.00
2019-03-22T13:02:42.452Z,81.15
2019-03-22T13:05:11.377Z,82.30
2019-03-22T13:07:39.809Z,81.12
2019-03-22T13:10:10.792Z,82.08
2019-03-22T13:12:39.246Z,80.47
2019-03-22T13:15:08.530Z,78.28
2019-03-22T13:17:36.972Z,75.32
2019-03-22T13:20:11.343Z,73.65
2019-03-22T13:22:39.790Z,73.78
2019-03-22T13:25:10.558Z,71.42
2019-03-22T13:27:39.072Z,71.22
2019-03-22T13:30:28.828Z,79.00
2019-03-22T13:32:58.493Z,82.53
2019-03-22T13:35:26.998Z,80.67
2019-03-22T13:37:55.451Z,70.85
2019-03-22T13:40:23.954Z,69.45
2019-03-22T13:42:52.406Z,76.97
2019-03-22T13:45:20.916Z,71.65
2019-03-22T13:47:49.346Z,75.52
2019-03-22T13:50:17.952Z,73.57
2019-03-22T13:52:46.451Z,68.97
2019-03-22T13:55:14.996Z,66.95
2019-03-22T13:57:43.419Z,72.40
2019-03-22T14:00:17.366Z,73.42
2019-03-22T14:02:45.828Z,77.78
2019-03-22T14:05:14.425Z,69.92
2019-03-22T14:07:42.871Z,72.05
2019-03-22T14:10:19.956Z,66.40
2019-03-22T14:12:48.406Z,65.65
2019-03-22T14:15:16.853Z,66.87
2019-03-22T14:17:45.307Z,69.50
2019-03-22T14:20:13.799Z,70.32
2019-03-22T14:22:42.265Z,79.12
2019-03-22T14:25:10.857Z,66.90
2019-03-22T14:27:39.418Z,75.62
2019-03-22T14:30:08.602Z,71.22
2019-03-22T14:32:37.331Z,69.65
2019-03-22T14:35:07.518Z,65.05
2019-03-22T14:37:36.029Z,72.22
2019-03-22T14:40:06.003Z,69.70
2019-03-22T14:42:34.435Z,72.08
2019-03-22T14:45:05.118Z,69.55
2019-03-22T14:47:33.546Z,68.47
2019-03-22T14:50:01.986Z,74.97
2019-03-22T14:52:38.447Z,66.45
2019-03-22T14:55:07.558Z,68.07
2019-03-22T14:57:36.030Z,66.95
2019-03-22T15:00:06.772Z,72.40
2019-03-22T15:02:35.213Z,69.15
2019-03-22T15:05:04.723Z,69.10
2019-03-22T15:07:33.241Z,68.60
2019-03-22T15:10:01.751Z,76.50
2019-03-22T15:12:30.196Z,70.65
2019-03-22T15:15:12.376Z,71.28
2019-03-22T15:17:54.507Z,62.08
2019-03-22T15:20:24.608Z,64.95
2019-03-22T15:23:06.711Z,66.80
2019-03-22T15:25:53.006Z,69.47
2019-03-22T15:28:25.813Z,65.12
2019-03-22T15:30:58.328Z,60.52
2019-03-22T15:33:44.721Z,61.68
2019-03-22T15:36:30.886Z,65.28
2019-03-22T15:39:01.100Z,64.12
2019-03-22T15:41:29.667Z,61.83
2019-03-22T15:43:58.134Z,59.50
2019-03-22T15:46:26.630Z,60.17
2019-03-22T15:48:55.134Z,64.58
2019-03-22T15:51:23.593Z,62.70
2019-03-22T15:53:52.040Z,60.28
2019-03-22T15:56:20.480Z,61.18
2019-03-22T15:58:48.942Z,58.15
2019-03-22T16:01:17.394Z,61.40
2019-03-22T16:03:45.814Z,59.63
2019-03-22T16:06:14.272Z,61.35
2019-03-22T16:08:42.717Z,57.17
2019-03-22T16:11:11.162Z,61.02
2019-03-22T16:13:39.617Z,62.80
2019-03-22T16:16:08.060Z,60.50
2019-03-22T16:18:36.566Z,55.48
2019-03-22T16:21:04.997Z,59.85
2019-03-22T16:23:33.457Z,58.13
2019-03-22T16:26:01.888Z,57.00
2019-03-22T16:28:30.340Z,60.33
2019-03-22T16:30:58.766Z,61.23
2019-03-22T16:33:27.214Z,64.12
2019-03-22T16:35:55.664Z,61.65
2019-03-22T16:38:24.189Z,57.30
2019-03-22T16:40:52.618Z,59.60
2019-03-22T16:43:21.070Z,60.63
2019-03-22T16:45:49.504Z,64.30
2019-03-22T16:48:17.964Z,61.23
2019-03-22T16:50:46.500Z,59.15
2019-03-22T16:53:14.929Z,65.00
2019-03-22T16:55:43.385Z,64.53
2019-03-22T16:58:11.838Z,66.62
2019-03-22T17:00:40.461Z,120.15
2019-03-22T17:03:09.129Z,120.65
2019-03-22T17:05:37.818Z,69.45
2019-03-22T17:08:06.282Z,61.75
2019-03-22T17:10:34.942Z,62.33
2019-03-22T17:13:03.408Z,66.00
2019-03-22T17:15:31.834Z,66.47
2019-03-22T17:18:00.264Z,63.38
2019-03-22T17:20:28.702Z,65.00
2019-03-22T17:22:57.204Z,73.07
2019-03-22T17:25:25.665Z,74.10
2019-03-22T17:27:54.114Z,70.87
2019-03-22T17:30:22.641Z,70.22
2019-03-22T17:32:51.135Z,69.92
2019-03-22T17:35:19.584Z,72.70
2019-03-22T17:37:48.013Z,71.17
2019-03-22T17:40:16.442Z,69.67
2019-03-22T17:42:44.890Z,69.72
2019-03-22T17:45:16.352Z,74.67
2019-03-22T17:47:44.866Z,70.70
2019-03-22T17:50:14.237Z,68.25
2019-03-22T17:52:42.704Z,69.62
2019-03-22T17:55:11.762Z,69.50
2019-03-22T17:57:40.204Z,75.87
2019-03-22T18:00:18.338Z,71.07
2019-03-22T18:02:46.779Z,74.87
2019-03-22T18:05:15.370Z,75.57
2019-03-22T18:07:43.804Z,75.55
2019-03-22T18:10:12.901Z,75.83
2019-03-22T18:12:41.353Z,80.25
2019-03-22T18:15:12.029Z,80.87
2019-03-22T18:17:40.464Z,81.25
2019-03-22T18:20:14.699Z,80.83
2019-03-22T18:22:43.125Z,84.03
2019-03-22T18:25:12.222Z,77.30
2019-03-22T18:27:40.667Z,77.05
2019-03-22T18:30:11.557Z,79.87
2019-03-22T18:32:40.029Z,80.95
2019-03-22T18:35:08.932Z,90.92
2019-03-22T18:37:37.384Z,86.85
2019-03-22T18:40:08.813Z,83.87
2019-03-22T18:42:37.277Z,85.75
2019-03-22T18:45:07.850Z,86.35
2019-03-22T18:47:36.313Z,83.75
2019-03-22T18:50:07.829Z,81.80
2019-03-22T18:52:36.284Z,78.35
2019-03-22T18:55:06.464Z,79.87
2019-03-22T19:00:18.059Z,78.28
2019-03-22T19:02:46.488Z,75.95
2019-03-22T19:05:18.030Z,76.53
2019-03-22T19:07:46.489Z,78.80
2019-03-22T19:10:15.790Z,75.62
2019-03-22T19:12:53.897Z,75.15
2019-03-22T19:15:22.337Z,80.40
2019-03-22T19:17:50.784Z,79.45
2019-03-22T19:20:41.261Z,80.25
2019-03-22T19:23:09.697Z,79.77
2019-03-22T19:25:38.241Z,78.75
2019-03-22T19:28:06.666Z,76.53
2019-03-22T19:30:35.101Z,82.60
2019-03-22T19:33:03.551Z,85.87
2019-03-22T19:35:32.038Z,95.12
2019-03-22T19:38:00.490Z,97.22
2019-03-22T19:40:28.941Z,87.45
2019-03-22T19:42:57.400Z,88.20
2019-03-22T19:45:25.902Z,89.85
2019-03-22T19:47:54.365Z,85.55
2019-03-22T19:50:22.813Z,82.50
2019-03-22T19:52:51.253Z,82.08
2019-03-22T19:55:19.700Z,78.92
2019-03-22T19:57:48.145Z,84.05
2019-03-22T20:00:18.238Z,83.25
2019-03-22T20:02:49.265Z,81.45
2019-03-22T20:05:31.566Z,83.47
2019-03-22T20:08:00.655Z,80.35
2019-03-22T20:10:29.181Z,80.80
2019-03-22T20:12:57.708Z,82.27
2019-03-22T20:15:26.161Z,80.70
2019-03-22T20:17:54.601Z,76.65
2019-03-22T20:20:23.107Z,85.15
2019-03-22T20:22:51.565Z,85.10
2019-03-22T20:25:20.017Z,83.15
2019-03-22T20:27:48.515Z,81.47
2019-03-22T20:30:18.330Z,89.03
2019-03-22T20:32:46.754Z,79.70
2019-03-22T20:35:16.959Z,84.30
2019-03-22T20:37:45.509Z,82.50
2019-03-22T20:40:18.185Z,82.30
2019-03-22T20:42:46.984Z,83.20
2019-03-22T20:45:23.695Z,79.47
2019-03-22T20:47:45.825Z,84.87
2019-03-22T20:50:14.581Z,82.17
2019-03-22T20:52:43.031Z,83.25
2019-03-22T20:55:11.621Z,82.53
2019-03-22T20:57:40.053Z,84.85
2019-03-22T21:00:11.002Z,86.20
2019-03-22T21:02:39.455Z,89.15
2019-03-22T21:05:25.912Z,90.47
2019-03-22T21:07:45.358Z,90.60
2019-03-22T21:10:13.897Z,88.37
2019-03-22T21:12:42.332Z,85.83
2019-03-22T21:15:12.446Z,84.95
2019-03-22T21:17:40.916Z,90.25
2019-03-22T21:20:10.390Z,90.50
2019-03-22T21:22:38.920Z,87.33
2019-03-22T21:25:08.901Z,92.10
2019-03-22T21:27:38.336Z,91.75
2019-03-22T21:30:14.608Z,93.82
2019-03-22T21:32:45.848Z,91.08
2019-03-22T21:35:22.565Z,94.90
2019-03-22T21:37:44.786Z,89.07
2019-03-22T21:40:13.318Z,87.33
2019-03-22T21:42:41.772Z,86.92
2019-03-22T21:45:10.911Z,91.50
2019-03-22T21:47:39.349Z,95.40
2019-03-22T21:50:09.363Z,86.55
2019-03-22T21:52:37.862Z,91.80
2019-03-22T21:55:08.032Z,95.45
2019-03-22T21:57:36.480Z,94.17
2019-03-22T22:00:07.166Z,97.37
2019-03-22T22:02:35.629Z,93.85
2019-03-22T22:05:05.715Z,96.53
2019-03-22T22:07:34.167Z,94.90
2019-03-22T22:10:02.996Z,90.25
2019-03-22T22:12:31.426Z,94.45
2019-03-22T22:14:59.867Z,92.92
2019-03-22T22:17:28.338Z,91.32
2019-03-22T22:19:56.771Z,89.95
2019-03-22T22:22:25.218Z,98.37
2019-03-22T22:24:53.765Z,99.40
2019-03-22T22:27:22.282Z,90.38
2019-03-22T22:29:50.743Z,96.90
2019-03-22T22:32:19.209Z,95.80
2019-03-22T22:34:47.661Z,101.90
2019-03-22T22:37:16.102Z,101.50
2019-03-22T22:39:44.565Z,93.03
2019-03-22T22:42:13.017Z,99.50
2019-03-22T22:44:41.438Z,97.62
2019-03-22T22:47:09.883Z,98.52
2019-03-22T22:49:38.342Z,105.97
2019-03-22T22:52:06.794Z,96.20
2019-03-22T22:54:35.255Z,92.70
2019-03-22T22:57:03.697Z,99.90
2019-03-22T22:59:32.156Z,99.05
2019-03-22T23:02:00.585Z,104.15
2019-03-22T23:04:29.037Z,99.32
2019-03-22T23:06:57.496Z,102.42
2019-03-22T23:09:26.294Z,102.65
2019-03-22T23:11:54.758Z,99.75
2019-03-22T23:14:23.200Z,104.95
2019-03-22T23:16:51.646Z,104.60
2019-03-22T23:19:20.088Z,99.20
2019-03-22T23:21:48.526Z,98.85
2019-03-22T23:24:17.117Z,105.80
2019-03-22T23:26:45.558Z,100.07
2019-03-22T23:29:13.990Z,99.05
2019-03-22T23:31:42.456Z,102.07
2019-03-22T23:34:10.907Z,99.85
2019-03-22T23:36:39.364Z,101.22
2019-03-22T23:39:08.277Z,104.40
2019-03-22T23:41:36.715Z,107.15
2019-03-22T23:44:05.164Z,106.80
2019-03-22T23:46:33.604Z,103.47
2019-03-22T23:49:02.076Z,103.55
2019-03-22T23:51:30.572Z,105.12
2019-03-22T23:53:58.997Z,103.97
2019-03-22T23:56:27.456Z,109.57
2019-03-22T23:58:55.895Z,99.45
